Terminal Aerodrome Forecast
Issued by NWS

Home | Current Version | Previous Version | Graphics & Text | Print | Product List | Glossary On
Versions: 1 2 3 4 5 6 7 8 9 10 11 12 13 14 15
457
FTUS43 KMPX 191504 AAB
TAFRWF
TAF AMD
KRWF 191504Z 1915/2012 22006KT P6SM SCT003
     FM191900 17009KT P6SM SKC
     FM200100 16006KT P6SM SKC=

USA.gov is the U.S. government's official web portal to all federal, state and local government web resources and services.